createdAt,value
2024-05-09T00:02:24.354Z,100.00
2024-05-09T00:04:55.039Z,100.00
2024-05-09T00:07:25.719Z,100.00
2024-05-09T00:09:56.404Z,100.00
2024-05-09T00:12:27.000Z,100.00
2024-05-09T00:14:57.643Z,100.00
2024-05-09T00:17:28.307Z,100.00
2024-05-09T00:19:59.062Z,100.00
2024-05-09T00:22:30.666Z,100.00
2024-05-09T00:25:01.219Z,100.00
2024-05-09T00:27:31.822Z,100.00
2024-05-09T00:30:04.116Z,100.00
2024-05-09T00:32:36.120Z,100.00
2024-05-09T00:35:06.921Z,100.00
2024-05-09T00:37:37.448Z,100.00
2024-05-09T00:40:15.073Z,100.00
2024-05-09T00:42:52.853Z,100.00
2024-05-09T00:45:23.394Z,100.00
2024-05-09T00:47:54.392Z,100.00
2024-05-09T00:50:33.416Z,100.00
2024-05-09T00:53:08.417Z,100.00
2024-05-09T00:55:41.009Z,100.00
2024-05-09T00:58:15.454Z,100.00
2024-05-09T01:00:46.942Z,100.00
2024-05-09T01:03:17.892Z,100.00
2024-05-09T01:05:49.001Z,100.00
2024-05-09T01:08:19.696Z,100.00
2024-05-09T01:10:50.443Z,100.00
2024-05-09T01:13:21.207Z,100.00
2024-05-09T01:15:54.135Z,100.00
2024-05-09T01:18:25.626Z,100.00
2024-05-09T01:20:56.433Z,100.00
2024-05-09T01:23:26.970Z,100.00
2024-05-09T01:25:57.508Z,100.00
2024-05-09T01:28:28.090Z,100.00
2024-05-09T01:30:59.100Z,100.00
2024-05-09T01:33:29.909Z,100.00
2024-05-09T01:36:00.688Z,100.00
2024-05-09T01:38:31.448Z,100.00
2024-05-09T01:41:02.313Z,100.00
2024-05-09T01:43:32.925Z,100.00
2024-05-09T01:46:03.539Z,100.00
2024-05-09T01:48:34.108Z,100.00
2024-05-09T01:51:04.935Z,100.00
2024-05-09T01:53:35.624Z,100.00
2024-05-09T01:56:06.443Z,100.00
2024-05-09T01:58:37.036Z,100.00
2024-05-09T02:01:07.830Z,100.00
2024-05-09T02:03:38.656Z,100.00
2024-05-09T02:06:09.575Z,100.00
2024-05-09T02:08:40.980Z,100.00
2024-05-09T02:11:11.854Z,100.00
2024-05-09T02:13:42.550Z,100.00
2024-05-09T02:16:15.229Z,100.00
2024-05-09T02:18:46.012Z,100.00
2024-05-09T02:21:16.784Z,100.00
2024-05-09T02:23:47.382Z,100.00
2024-05-09T02:26:18.098Z,100.00
2024-05-09T02:28:48.693Z,100.00
2024-05-09T02:31:19.495Z,100.00
2024-05-09T02:33:50.522Z,100.00
2024-05-09T02:36:22.677Z,100.00
2024-05-09T02:38:50.501Z,100.00
2024-05-09T02:41:18.471Z,100.00
2024-05-09T02:43:49.116Z,100.00
2024-05-09T02:46:17.063Z,100.00
2024-05-09T02:48:47.825Z,100.00
2024-05-09T02:51:15.930Z,100.00
2024-05-09T02:53:46.772Z,100.00
2024-05-09T02:56:14.669Z,100.00
2024-05-09T02:58:45.318Z,100.00
2024-05-09T03:01:13.315Z,100.00
2024-05-09T03:03:48.716Z,100.00
2024-05-09T03:06:16.738Z,100.00
2024-05-09T03:08:53.219Z,100.00
2024-05-09T03:11:22.807Z,100.00
2024-05-09T03:13:57.037Z,100.00
2024-05-09T03:16:24.947Z,100.00
2024-05-09T03:18:55.608Z,100.00
2024-05-09T03:21:23.758Z,100.00
2024-05-09T03:23:54.378Z,100.00
2024-05-09T03:26:22.403Z,100.00
2024-05-09T03:28:53.038Z,100.00
2024-05-09T03:31:21.016Z,100.00
2024-05-09T03:33:51.810Z,100.00
2024-05-09T03:36:19.817Z,100.00
2024-05-09T03:38:51.093Z,100.00
2024-05-09T03:41:24.920Z,100.00
2024-05-09T03:43:55.612Z,100.00
2024-05-09T03:46:23.577Z,100.00
2024-05-09T03:48:54.173Z,100.00
2024-05-09T03:51:22.444Z,100.00
2024-05-09T03:53:53.009Z,100.00
2024-05-09T03:56:20.928Z,100.00
2024-05-09T03:58:51.535Z,100.00
2024-05-09T04:01:19.605Z,100.00
2024-05-09T04:03:50.289Z,100.00
2024-05-09T04:06:25.982Z,100.00
2024-05-09T04:08:56.739Z,100.00
2024-05-09T04:11:24.796Z,100.00
2024-05-09T04:13:55.398Z,100.00
2024-05-09T04:16:24.039Z,100.00
2024-05-09T04:18:54.831Z,100.00
2024-05-09T04:21:22.820Z,100.00
2024-05-09T04:23:53.385Z,100.00
2024-05-09T04:26:21.543Z,100.00
2024-05-09T04:28:52.222Z,100.00
2024-05-09T04:31:22.010Z,100.00
2024-05-09T04:33:52.953Z,100.00
2024-05-09T04:36:20.929Z,100.00
2024-05-09T04:38:51.514Z,100.00
2024-05-09T04:41:20.679Z,100.00
2024-05-09T04:43:53.011Z,100.00
2024-05-09T04:46:20.908Z,100.00
2024-05-09T04:48:51.697Z,100.00
2024-05-09T04:51:19.683Z,100.00
2024-05-09T04:53:50.251Z,100.00
2024-05-09T04:56:18.212Z,100.00
2024-05-09T04:58:49.838Z,100.00
2024-05-09T05:01:17.803Z,100.00
2024-05-09T05:03:48.673Z,98.18
2024-05-09T05:06:16.691Z,100.00
2024-05-09T05:08:47.852Z,97.72
2024-05-09T05:11:15.990Z,97.50
2024-05-09T05:13:46.661Z,98.29
2024-05-09T05:16:14.550Z,100.00
2024-05-09T05:18:45.220Z,100.00
2024-05-09T05:21:13.297Z,100.00
2024-05-09T05:23:43.905Z,99.95
2024-05-09T05:26:11.944Z,95.90
2024-05-09T05:28:42.680Z,95.62
2024-05-09T05:31:10.703Z,95.03
2024-05-09T05:33:41.644Z,92.41
2024-05-09T05:36:11.216Z,93.93
2024-05-09T05:38:44.135Z,91.89
2024-05-09T05:41:12.588Z,90.42
2024-05-09T05:43:43.388Z,88.07
2024-05-09T05:46:11.272Z,88.37
2024-05-09T05:48:41.916Z,88.29
2024-05-09T05:51:09.962Z,87.36
2024-05-09T05:53:40.667Z,87.68
2024-05-09T05:56:08.849Z,87.82
2024-05-09T05:58:39.396Z,87.13
2024-05-09T06:01:07.937Z,87.80
2024-05-09T06:03:39.601Z,87.54
2024-05-09T06:06:07.752Z,86.83
2024-05-09T06:08:38.501Z,84.89
2024-05-09T06:11:06.720Z,84.26
2024-05-09T06:13:37.322Z,80.83
2024-05-09T06:16:05.752Z,81.90
2024-05-09T06:18:36.642Z,85.48
2024-05-09T06:21:08.137Z,85.86
2024-05-09T06:23:38.848Z,86.64
2024-05-09T06:26:06.804Z,86.82
2024-05-09T06:28:41.392Z,84.87
2024-05-09T06:31:09.408Z,86.42
2024-05-09T06:33:45.709Z,84.11
2024-05-09T06:36:13.931Z,81.58
2024-05-09T06:38:46.514Z,82.32
2024-05-09T06:41:14.527Z,81.75
2024-05-09T06:43:46.851Z,80.56
2024-05-09T06:46:15.576Z,78.90
2024-05-09T06:48:48.480Z,78.21
2024-05-09T06:51:18.029Z,73.53
2024-05-09T06:53:49.973Z,70.30
2024-05-09T06:56:18.153Z,70.74
2024-05-09T06:58:49.076Z,72.57
2024-05-09T07:01:18.594Z,71.84
2024-05-09T07:03:50.785Z,73.16
2024-05-09T07:06:20.039Z,74.27
2024-05-09T07:08:53.202Z,73.17
2024-05-09T07:11:21.806Z,73.82
2024-05-09T07:13:52.638Z,73.31
2024-05-09T07:16:20.964Z,71.91
2024-05-09T07:18:55.341Z,71.07
2024-05-09T07:21:24.788Z,71.30
2024-05-09T07:23:55.503Z,70.03
2024-05-09T07:26:25.102Z,69.10
2024-05-09T07:28:57.059Z,69.12
2024-05-09T07:31:28.303Z,68.75
2024-05-09T07:34:01.423Z,69.27
2024-05-09T07:36:30.846Z,66.68
2024-05-09T07:39:05.653Z,68.14
2024-05-09T07:41:33.727Z,69.06
2024-05-09T07:44:04.630Z,70.02
2024-05-09T07:54:15.752Z,64.60
2024-05-09T07:56:45.468Z,65.41
2024-05-09T07:59:16.281Z,67.26
2024-05-09T08:01:44.322Z,67.63
2024-05-09T08:04:15.202Z,69.62
2024-05-09T08:06:44.689Z,68.17
2024-05-09T08:09:20.566Z,66.90
2024-05-09T08:11:53.773Z,64.92
2024-05-09T08:14:25.526Z,65.97
2024-05-09T08:16:53.542Z,66.89
2024-05-09T08:19:24.743Z,72.57
2024-05-09T08:21:52.835Z,77.89
2024-05-09T08:24:24.436Z,79.38
2024-05-09T08:26:54.051Z,78.69
2024-05-09T08:29:37.253Z,79.68
2024-05-09T08:35:49.699Z,72.32
2024-05-09T08:38:17.751Z,70.33
2024-05-09T08:40:48.813Z,70.91
2024-05-09T08:43:18.376Z,65.74
2024-05-09T08:45:53.146Z,67.05
2024-05-09T08:48:24.478Z,65.29
2024-05-09T08:51:01.739Z,63.45
2024-05-09T08:53:29.708Z,66.40
2024-05-09T08:56:07.229Z,67.53
2024-05-09T08:58:39.868Z,67.05
2024-05-09T09:01:12.366Z,68.41
2024-05-09T09:03:45.456Z,67.24
2024-05-09T09:06:20.114Z,65.08
2024-05-09T09:08:49.975Z,64.93
2024-05-09T09:11:20.779Z,64.44
2024-05-09T09:13:48.731Z,63.62
2024-05-09T09:16:19.748Z,64.29
2024-05-09T09:18:47.931Z,67.48
2024-05-09T09:21:19.192Z,64.85
2024-05-09T09:23:47.119Z,66.43
2024-05-09T09:26:21.461Z,66.34
2024-05-09T09:28:53.234Z,64.99
2024-05-09T09:31:30.830Z,64.86
2024-05-09T09:34:10.955Z,61.81
2024-05-09T09:36:47.380Z,60.96
2024-05-09T09:39:20.466Z,62.08
2024-05-09T09:41:52.769Z,60.89
2024-05-09T09:44:24.390Z,60.44
2024-05-09T09:47:02.716Z,62.55
2024-05-09T09:49:37.005Z,63.80
2024-05-09T09:52:11.418Z,61.37
2024-05-09T09:54:46.606Z,62.00
2024-05-09T09:57:18.623Z,62.64
2024-05-09T09:59:49.869Z,63.95
2024-05-09T10:02:22.365Z,61.60
2024-05-09T10:04:51.216Z,60.88
2024-05-09T10:07:24.440Z,60.46
2024-05-09T10:09:56.416Z,60.01
2024-05-09T10:12:27.575Z,61.26
2024-05-09T10:14:56.596Z,61.76
2024-05-09T10:17:27.713Z,59.83
2024-05-09T10:20:14.753Z,61.32
2024-05-09T10:22:53.677Z,59.99
2024-05-09T10:25:24.170Z,59.71
2024-05-09T10:27:59.456Z,62.10
2024-05-09T10:30:34.120Z,60.09
2024-05-09T10:33:14.804Z,59.91
2024-05-09T10:35:56.967Z,60.94
2024-05-09T10:38:25.852Z,61.15
2024-05-09T10:41:01.828Z,59.14
2024-05-09T10:43:32.703Z,59.24
2024-05-09T10:46:07.195Z,59.61
2024-05-09T10:48:35.724Z,58.34
2024-05-09T10:51:09.274Z,59.63
2024-05-09T10:54:01.088Z,61.27
2024-05-09T10:56:34.548Z,60.53
2024-05-09T10:59:06.294Z,60.71
2024-05-09T11:01:37.091Z,60.45
2024-05-09T11:04:07.233Z,59.36
2024-05-09T11:06:38.664Z,57.80
2024-05-09T11:09:08.194Z,58.04
2024-05-09T11:11:38.961Z,58.49
2024-05-09T11:14:15.016Z,59.31
2024-05-09T11:16:48.455Z,58.82
2024-05-09T11:19:19.902Z,59.60
2024-05-09T11:22:00.693Z,59.17
2024-05-09T11:24:35.235Z,60.84
2024-05-09T11:27:07.719Z,58.44
2024-05-09T11:29:44.188Z,58.81
2024-05-09T11:32:18.968Z,58.83
2024-05-09T11:34:47.344Z,60.02
2024-05-09T11:37:19.621Z,59.95
2024-05-09T11:39:49.606Z,58.09
2024-05-09T11:42:22.890Z,58.89
2024-05-09T11:44:56.185Z,59.16
2024-05-09T11:47:28.630Z,61.17
2024-05-09T11:49:58.379Z,60.75
2024-05-09T11:52:31.724Z,58.75
2024-05-09T11:55:00.391Z,59.49
2024-05-09T11:57:31.528Z,56.41
2024-05-09T12:00:00.866Z,59.20
2024-05-09T12:02:38.351Z,54.67
2024-05-09T12:05:07.535Z,59.24
2024-05-09T12:07:45.760Z,58.27
2024-05-09T12:10:19.863Z,58.53
2024-05-09T12:12:53.914Z,58.82
2024-05-09T12:15:22.182Z,58.29
2024-05-09T12:17:55.817Z,58.24
2024-05-09T12:20:34.780Z,60.71
2024-05-09T12:23:10.181Z,59.21
2024-05-09T12:25:40.393Z,58.41
2024-05-09T12:28:11.572Z,58.89
2024-05-09T12:30:41.110Z,58.19
2024-05-09T12:33:16.065Z,58.37
2024-05-09T12:35:46.648Z,57.89
2024-05-09T12:38:18.935Z,59.21
2024-05-09T12:40:51.275Z,57.95
2024-05-09T12:43:33.612Z,58.90
2024-05-09T12:46:05.884Z,58.97
2024-05-09T12:48:39.851Z,59.26
2024-05-09T12:51:08.898Z,60.24
2024-05-09T12:53:47.245Z,59.86
2024-05-09T12:56:19.474Z,61.85
2024-05-09T12:58:51.580Z,61.75
2024-05-09T13:01:20.707Z,63.17
2024-05-09T13:03:53.027Z,59.51
2024-05-09T13:06:21.288Z,60.32
2024-05-09T13:08:55.059Z,60.38
2024-05-09T13:11:23.145Z,61.11
2024-05-09T13:13:54.836Z,60.42
2024-05-09T13:16:23.483Z,59.66
2024-05-09T13:18:54.476Z,59.59
2024-05-09T13:21:24.788Z,58.52
2024-05-09T13:23:56.810Z,58.76
2024-05-09T13:26:26.874Z,58.81
2024-05-09T13:28:59.994Z,59.92
2024-05-09T13:31:35.679Z,57.29
2024-05-09T13:34:33.671Z,58.20
2024-05-09T13:37:01.958Z,57.14
2024-05-09T13:39:32.838Z,55.23
2024-05-09T13:42:00.878Z,55.37
2024-05-09T13:44:31.724Z,53.99
2024-05-09T13:47:02.150Z,53.21
2024-05-09T13:49:34.856Z,53.01
2024-05-09T13:52:03.059Z,53.96
2024-05-09T13:54:34.218Z,53.61
2024-05-09T13:57:24.360Z,55.11
2024-05-09T14:00:00.008Z,57.11
2024-05-09T14:02:28.897Z,55.75
2024-05-09T14:04:59.663Z,54.93
2024-05-09T14:07:27.716Z,53.99
2024-05-09T14:09:58.405Z,56.30
2024-05-09T14:12:27.022Z,55.39
2024-05-09T14:14:58.379Z,58.09
2024-05-09T14:17:26.639Z,56.71
2024-05-09T14:19:57.635Z,58.71
2024-05-09T14:22:25.638Z,58.30
2024-05-09T14:25:10.116Z,57.93
2024-05-09T14:27:38.438Z,57.77
2024-05-09T14:30:18.110Z,57.04
2024-05-09T14:32:58.685Z,56.75
2024-05-09T14:35:29.672Z,57.48
2024-05-09T14:38:28.336Z,57.86
2024-05-09T14:41:09.641Z,57.89
2024-05-09T14:43:39.712Z,58.58
2024-05-09T14:46:11.907Z,56.58
2024-05-09T14:48:44.178Z,58.54
2024-05-09T14:51:20.928Z,58.05
2024-05-09T14:53:53.657Z,57.69
2024-05-09T14:56:24.564Z,56.91
2024-05-09T14:58:55.513Z,57.99
2024-05-09T15:01:27.026Z,58.24
2024-05-09T15:03:58.079Z,58.39
2024-05-09T15:11:56.318Z,54.81
2024-05-09T15:14:24.438Z,53.96
2024-05-09T15:16:57.276Z,55.50
2024-05-09T15:19:27.845Z,54.21
2024-05-09T15:22:00.747Z,53.57
2024-05-09T15:24:30.327Z,54.08
2024-05-09T15:27:01.073Z,56.18
2024-05-09T15:29:30.492Z,56.11
2024-05-09T15:32:08.265Z,56.72
2024-05-09T15:34:36.682Z,56.72
2024-05-09T15:38:51.507Z,56.18
2024-05-09T15:41:22.280Z,56.37
2024-05-09T15:43:54.285Z,55.93
2024-05-09T15:46:40.399Z,55.68
2024-05-09T15:49:09.985Z,57.19
2024-05-09T15:51:44.593Z,57.53
2024-05-09T15:54:12.581Z,55.62
2024-05-09T15:56:47.477Z,58.12
2024-05-09T15:59:17.032Z,57.72
2024-05-09T16:01:52.634Z,56.46
2024-05-09T16:04:25.771Z,55.67
2024-05-09T16:06:58.648Z,54.07
2024-05-09T16:09:40.775Z,54.99
2024-05-09T16:12:13.734Z,54.45
2024-05-09T16:14:42.106Z,55.01
2024-05-09T16:17:16.293Z,53.34
2024-05-09T16:19:47.013Z,54.49
2024-05-09T16:22:18.637Z,53.56
2024-05-09T16:24:47.108Z,54.40
2024-05-09T16:27:20.360Z,54.12
2024-05-09T16:29:49.812Z,54.49
2024-05-09T16:32:20.765Z,54.55
2024-05-09T16:34:49.893Z,53.99
2024-05-09T16:37:29.426Z,55.54
2024-05-09T16:40:01.379Z,54.72
2024-05-09T16:42:46.922Z,56.60
2024-05-09T16:45:17.313Z,55.60
2024-05-09T16:47:53.261Z,58.10
2024-05-09T16:50:28.773Z,60.41
2024-05-09T16:53:14.926Z,59.75
2024-05-09T16:55:46.845Z,60.69
2024-05-09T16:58:16.756Z,59.25
2024-05-09T17:00:49.004Z,58.83
2024-05-09T17:03:19.267Z,59.91
2024-05-09T17:06:22.998Z,60.92
2024-05-09T17:08:55.612Z,60.63
2024-05-09T17:11:41.543Z,58.94
2024-05-09T17:14:25.216Z,61.92
2024-05-09T17:17:01.327Z,60.98
2024-05-09T17:19:30.215Z,61.52
2024-05-09T17:22:01.232Z,61.54
2024-05-09T17:24:32.133Z,61.56
2024-05-09T17:27:03.646Z,62.42
2024-05-09T17:29:33.321Z,62.71
2024-05-09T17:32:04.444Z,65.55
2024-05-09T17:34:38.359Z,63.81
2024-05-09T17:37:09.221Z,65.60
2024-05-09T17:39:37.224Z,63.30
2024-05-09T17:42:08.484Z,63.57
2024-05-09T17:44:37.104Z,64.04
2024-05-09T17:47:11.440Z,63.75
2024-05-09T17:49:39.711Z,64.84
2024-05-09T17:52:12.774Z,66.58
2024-05-09T17:54:43.434Z,66.01
2024-05-09T17:57:11.531Z,66.92
2024-05-09T17:59:42.084Z,67.50
2024-05-09T18:02:10.455Z,67.93
2024-05-09T18:04:41.380Z,69.16
2024-05-09T18:07:11.192Z,68.85
2024-05-09T18:09:44.589Z,67.44
2024-05-09T18:12:16.398Z,66.99
2024-05-09T18:14:48.698Z,67.81
2024-05-09T18:17:22.310Z,69.13
2024-05-09T18:19:54.182Z,69.26
2024-05-09T18:22:24.130Z,68.59
2024-05-09T18:24:58.164Z,68.80
2024-05-09T18:27:26.123Z,69.86
2024-05-09T18:29:57.349Z,70.19
2024-05-09T18:32:26.417Z,69.36
2024-05-09T18:34:57.370Z,70.50
2024-05-09T18:37:25.764Z,70.05
2024-05-09T18:39:57.728Z,69.58
2024-05-09T18:42:28.486Z,70.14
2024-05-09T18:45:03.392Z,69.68
2024-05-09T18:47:34.256Z,71.17
2024-05-09T18:50:14.289Z,72.41
2024-05-09T18:52:46.748Z,73.99
2024-05-09T18:55:18.882Z,74.86
2024-05-09T18:57:47.930Z,75.27
2024-05-09T19:00:32.979Z,75.98
2024-05-09T19:03:06.233Z,76.52
2024-05-09T19:05:41.480Z,76.28
2024-05-09T19:08:10.331Z,77.03
2024-05-09T19:10:43.358Z,77.15
2024-05-09T19:13:13.595Z,77.35
2024-05-09T19:15:46.747Z,77.42
2024-05-09T19:18:17.271Z,77.32
2024-05-09T19:20:49.582Z,77.16
2024-05-09T19:23:17.564Z,77.41
2024-05-09T19:25:51.168Z,78.38
2024-05-09T19:28:23.771Z,78.80
2024-05-09T19:30:54.798Z,79.93
2024-05-09T19:33:24.067Z,80.64
2024-05-09T19:35:54.947Z,81.02
2024-05-09T19:38:24.354Z,81.72
2024-05-09T19:40:58.081Z,82.05
2024-05-09T19:43:28.166Z,82.63
2024-05-09T19:45:59.140Z,83.49
2024-05-09T19:48:27.291Z,83.52
2024-05-09T19:50:58.118Z,84.64
2024-05-09T19:53:26.255Z,84.79
2024-05-09T19:56:00.402Z,84.91
2024-05-09T19:58:28.610Z,84.95
2024-05-09T20:00:59.692Z,85.86
2024-05-09T20:03:29.094Z,85.58
2024-05-09T20:05:59.951Z,85.56
2024-05-09T20:08:28.114Z,86.07
2024-05-09T20:10:59.959Z,86.18
2024-05-09T20:13:29.330Z,86.26
2024-05-09T20:16:01.647Z,87.40
2024-05-09T20:18:29.859Z,87.92
2024-05-09T20:21:01.419Z,87.70
2024-05-09T20:23:29.512Z,88.28
2024-05-09T20:26:01.854Z,88.94
2024-05-09T20:28:31.152Z,89.00
2024-05-09T20:31:02.286Z,90.07
2024-05-09T20:33:31.427Z,90.62
2024-05-09T20:36:03.652Z,92.70
2024-05-09T20:38:31.670Z,94.49
2024-05-09T20:41:02.267Z,94.05
2024-05-09T20:43:31.450Z,94.42
2024-05-09T20:46:02.650Z,96.69
2024-05-09T20:48:30.983Z,97.87
2024-05-09T20:51:01.787Z,95.90
2024-05-09T20:53:29.698Z,95.18
2024-05-09T20:56:00.851Z,96.42
2024-05-09T20:58:30.476Z,97.57
2024-05-09T21:01:02.645Z,99.61
2024-05-09T21:03:32.866Z,98.78
2024-05-09T21:06:03.602Z,97.44
2024-05-09T21:08:31.554Z,96.63
2024-05-09T21:11:02.329Z,97.63
2024-05-09T21:13:30.425Z,96.92
2024-05-09T21:16:01.152Z,96.07
2024-05-09T21:18:29.361Z,95.66
2024-05-09T21:21:00.186Z,95.03
2024-05-09T21:23:28.095Z,94.87
2024-05-09T21:25:58.656Z,96.09
2024-05-09T21:28:27.074Z,95.12
2024-05-09T21:30:58.111Z,93.58
2024-05-09T21:33:26.194Z,90.77
2024-05-09T21:35:58.593Z,88.94
2024-05-09T21:38:27.090Z,86.75
2024-05-09T21:40:58.231Z,87.25
2024-05-09T21:43:28.798Z,87.44
2024-05-09T21:45:59.355Z,87.48
2024-05-09T21:48:27.521Z,87.07
2024-05-09T21:50:58.191Z,86.99
2024-05-09T21:53:26.232Z,88.36
2024-05-09T21:55:57.014Z,89.07
2024-05-09T21:58:24.920Z,88.63
2024-05-09T22:00:55.725Z,88.89
2024-05-09T22:03:23.983Z,89.07
2024-05-09T22:05:54.912Z,87.71
2024-05-09T22:08:22.787Z,86.02
2024-05-09T22:10:53.924Z,85.50
2024-05-09T22:13:22.027Z,84.58
2024-05-09T22:15:52.882Z,83.88
2024-05-09T22:18:20.901Z,83.42
2024-05-09T22:20:51.538Z,83.11
2024-05-09T22:23:19.451Z,83.03
2024-05-09T22:25:49.983Z,83.71
2024-05-09T22:28:18.350Z,82.95
2024-05-09T22:30:50.740Z,82.73
2024-05-09T22:33:18.780Z,82.48
2024-05-09T22:35:49.503Z,82.37
2024-05-09T22:38:17.479Z,81.97
2024-05-09T22:40:49.871Z,81.21
2024-05-09T22:43:24.295Z,81.89
2024-05-09T22:45:57.102Z,82.81
2024-05-09T22:48:26.285Z,83.35
2024-05-09T22:50:57.828Z,84.67
2024-05-09T22:53:26.198Z,83.17
2024-05-09T22:55:57.302Z,82.79
2024-05-09T22:58:25.549Z,81.10
2024-05-09T23:00:56.495Z,80.23
2024-05-09T23:03:24.668Z,79.80
2024-05-09T23:05:55.390Z,76.92
2024-05-09T23:08:23.307Z,78.90
2024-05-09T23:10:54.062Z,76.11
2024-05-09T23:13:22.262Z,75.63
2024-05-09T23:15:53.033Z,75.67
2024-05-09T23:18:21.168Z,73.21
2024-05-09T23:20:52.039Z,73.46
2024-05-09T23:23:20.189Z,75.56
2024-05-09T23:25:50.809Z,73.46
2024-05-09T23:28:18.961Z,72.69
2024-05-09T23:30:49.620Z,73.13
2024-05-09T23:33:17.897Z,73.85
2024-05-09T23:35:48.588Z,73.60
2024-05-09T23:38:16.450Z,73.20
2024-05-09T23:40:47.165Z,73.59
2024-05-09T23:43:15.197Z,72.34
2024-05-09T23:45:46.567Z,74.98
2024-05-09T23:48:14.813Z,74.54
2024-05-09T23:50:45.544Z,73.64
2024-05-09T23:53:14.487Z,72.77
2024-05-09T23:55:45.189Z,71.86
2024-05-09T23:58:13.253Z,74.57
